Terminal Aerodrome Forecast
Issued by NWS

Home | Current Version | Previous Version | Text Only | Print | Product List | Glossary On
Versions: 1 2 3 4 5 6 7 8 9 10 11 12 13 14 15 16 17 18 19 20 21 22
000
FTUS44 KJAN 051600 AAB
TAFGTR
TAF AMD
KGTR 051605Z 0516/0612 36012G19KT P6SM -SNPL OVC015
     FM051800 36016G25KT P6SM BKN010 OVC020
     FM052200 35012G20KT P6SM BKN015
     FM060600 35007KT P6SM SKC=

USA.gov is the U.S. government's official web portal to all federal, state and local government web resources and services.